createdAt,value
2018-04-16T00:01:13.375Z,94.40
2018-04-16T00:03:40.785Z,100.23
2018-04-16T00:06:08.197Z,104.17
2018-04-16T00:08:35.601Z,90.87
2018-04-16T00:11:03.005Z,107.07
2018-04-16T00:13:30.410Z,107.10
2018-04-16T00:15:57.809Z,112.47
2018-04-16T00:18:25.217Z,94.03
2018-04-16T00:20:52.600Z,85.73
2018-04-16T00:23:20.002Z,94.27
2018-04-16T00:25:47.402Z,96.23
2018-04-16T00:28:14.809Z,97.30
2018-04-16T00:30:42.210Z,106.87
2018-04-16T00:33:15.221Z,106.47
2018-04-16T00:35:48.354Z,111.07
2018-04-16T00:38:21.330Z,116.63
2018-04-16T00:40:54.430Z,123.83
2018-04-16T00:43:27.405Z,123.50
2018-04-16T00:46:00.468Z,114.93
2018-04-16T00:48:33.653Z,103.37
2018-04-16T00:54:18.809Z,125.50
2018-04-16T00:56:51.939Z,111.50
2018-04-16T00:59:24.963Z,108.90
2018-04-16T01:01:57.976Z,110.70
2018-04-16T01:04:30.926Z,109.73
2018-04-16T01:07:03.960Z,120.93
2018-04-16T01:09:36.921Z,123.77
2018-04-16T01:12:10.201Z,112.30
2018-04-16T01:14:43.252Z,117.63
2018-04-16T01:17:16.312Z,117.17
2018-04-16T01:22:50.488Z,122.17
2018-04-16T01:25:23.458Z,120.97
2018-04-16T01:27:56.442Z,126.00
2018-04-16T01:30:29.455Z,138.73
2018-04-16T01:33:02.415Z,138.70
2018-04-16T01:38:40.079Z,136.13
2018-04-16T01:41:13.185Z,134.57
2018-04-16T01:43:46.212Z,164.93
2018-04-16T01:46:19.183Z,157.37
2018-04-16T01:52:06.365Z,98.93
2018-04-16T01:57:41.520Z,110.10
2018-04-16T02:00:14.517Z,84.10
2018-04-16T02:02:47.432Z,96.47
2018-04-16T02:05:20.485Z,89.93
2018-04-16T02:07:53.536Z,96.50
2018-04-16T02:10:26.477Z,97.90
2018-04-16T02:12:59.737Z,134.00
2018-04-16T02:15:32.881Z,105.77
2018-04-16T02:18:05.997Z,112.03
2018-04-16T02:20:38.992Z,145.50
2018-04-16T02:23:11.948Z,99.60
2018-04-16T02:25:45.055Z,109.60
2018-04-16T02:28:18.130Z,114.53
2018-04-16T02:30:51.181Z,85.47
2018-04-16T02:33:24.298Z,84.30
2018-04-16T02:35:57.315Z,99.07
2018-04-16T02:41:35.661Z,105.63
2018-04-16T02:44:08.777Z,95.17
2018-04-16T02:46:41.957Z,121.27
2018-04-16T02:49:14.960Z,92.73
2018-04-16T02:51:47.905Z,298.50
2018-04-16T02:54:21.037Z,104.53
2018-04-16T02:56:54.312Z,130.70
2018-04-16T02:59:27.350Z,123.50
2018-04-16T03:02:00.525Z,140.30
2018-04-16T03:04:33.769Z,122.83
2018-04-16T03:07:06.741Z,135.13
2018-04-16T03:09:39.877Z,118.47
2018-04-16T03:12:12.944Z,232.80
2018-04-16T03:17:49.674Z,69.50
2018-04-16T03:20:22.825Z,69.13
2018-04-16T03:22:55.872Z,82.90
2018-04-16T03:25:28.859Z,93.40
2018-04-16T03:28:01.967Z,87.23
2018-04-16T03:30:35.061Z,87.57
2018-04-16T03:36:10.211Z,338.53
2018-04-16T03:38:43.158Z,642.77
2018-04-16T03:41:16.086Z,185.73
2018-04-16T03:43:49.237Z,61.70
2018-04-16T03:46:22.190Z,59.60
2018-04-16T03:48:55.222Z,75.00
2018-04-16T03:51:34.336Z,70.30
2018-04-16T03:54:01.741Z,64.37
2018-04-16T03:56:29.165Z,59.23
2018-04-16T03:58:56.561Z,76.00
2018-04-16T04:01:23.961Z,85.77
2018-04-16T04:03:51.358Z,81.40
2018-04-16T04:06:18.770Z,89.83
2018-04-16T04:08:46.165Z,95.27
2018-04-16T04:11:13.593Z,62.87
2018-04-16T04:13:41.071Z,81.90
2018-04-16T04:16:08.457Z,83.40
2018-04-16T04:18:35.865Z,69.90
2018-04-16T04:21:03.257Z,60.93
2018-04-16T04:26:42.310Z,69.13
2018-04-16T04:29:21.757Z,53.93
2018-04-16T04:31:49.227Z,53.30
2018-04-16T04:34:16.643Z,47.93
2018-04-16T04:36:44.043Z,54.17
2018-04-16T04:39:11.442Z,66.03
2018-04-16T04:41:38.833Z,69.17
2018-04-16T04:44:06.237Z,77.43
2018-04-16T04:46:33.661Z,67.43
2018-04-16T04:49:01.136Z,58.00
2018-04-16T04:51:28.536Z,68.60
2018-04-16T04:53:56.033Z,271.80
2018-04-16T04:56:23.453Z,282.73
2018-04-16T04:58:50.876Z,169.63
2018-04-16T05:01:18.294Z,80.80
2018-04-16T05:03:45.702Z,204.63
2018-04-16T05:06:13.089Z,41.67
2018-04-16T05:08:40.499Z,65.13
2018-04-16T05:11:07.894Z,52.43
2018-04-16T05:13:35.303Z,58.53
2018-04-16T05:16:02.709Z,51.17
2018-04-16T05:18:30.201Z,41.50
2018-04-16T05:20:57.644Z,40.53
2018-04-16T05:23:25.099Z,66.03
2018-04-16T05:25:52.488Z,74.97
2018-04-16T05:28:19.892Z,73.60
2018-04-16T05:30:47.284Z,57.50
2018-04-16T05:33:14.689Z,63.50
2018-04-16T05:35:42.085Z,77.83
2018-04-16T05:38:09.498Z,71.07
2018-04-16T05:40:36.984Z,63.40
2018-04-16T05:43:04.447Z,49.13
2018-04-16T05:45:31.842Z,54.30
2018-04-16T05:48:00.241Z,46.67
2018-04-16T05:50:27.642Z,38.33
2018-04-16T05:52:55.057Z,44.10
2018-04-16T05:55:22.550Z,56.33
2018-04-16T05:57:49.949Z,46.17
2018-04-16T06:00:17.351Z,43.43
2018-04-16T06:02:44.750Z,38.33
2018-04-16T06:05:12.148Z,47.00
2018-04-16T06:07:39.658Z,47.27
2018-04-16T06:10:07.078Z,42.30
2018-04-16T06:12:34.457Z,54.30
2018-04-16T06:15:01.875Z,44.80
2018-04-16T06:17:29.284Z,47.60
2018-04-16T06:19:56.684Z,48.57
2018-04-16T06:22:24.072Z,50.80
2018-04-16T06:24:51.474Z,41.43
2018-04-16T06:27:18.988Z,46.90
2018-04-16T06:29:46.378Z,39.20
2018-04-16T06:32:13.887Z,35.97
2018-04-16T06:34:41.337Z,31.20
2018-04-16T06:37:08.728Z,34.27
2018-04-16T06:39:36.131Z,38.87
2018-04-16T06:42:03.610Z,29.50
2018-04-16T06:44:31.061Z,32.57
2018-04-16T06:46:58.453Z,33.60
2018-04-16T06:49:25.874Z,41.30
2018-04-16T06:51:53.332Z,37.30
2018-04-16T06:54:20.801Z,39.70
2018-04-16T06:56:48.181Z,44.13
2018-04-16T06:59:15.617Z,38.20
2018-04-16T07:01:43.018Z,39.63
2018-04-16T07:04:10.544Z,44.90
2018-04-16T07:06:37.923Z,43.73
2018-04-16T07:09:06.949Z,47.23
2018-04-16T07:11:34.413Z,41.73
2018-04-16T07:14:01.887Z,46.23
2018-04-16T07:16:29.286Z,42.73
2018-04-16T07:18:56.691Z,42.33
2018-04-16T07:21:24.099Z,47.57
2018-04-16T07:23:51.593Z,44.43
2018-04-16T07:26:19.054Z,56.97
2018-04-16T07:28:46.473Z,46.90
2018-04-16T07:31:13.878Z,45.37
2018-04-16T07:33:41.292Z,44.73
2018-04-16T07:36:08.795Z,49.50
2018-04-16T07:38:36.220Z,46.47
2018-04-16T07:41:03.616Z,48.70
2018-04-16T07:43:31.050Z,40.53
2018-04-16T07:45:58.449Z,49.50
2018-04-16T07:48:26.356Z,47.23
2018-04-16T07:50:54.259Z,44.67
2018-04-16T07:53:21.662Z,45.53
2018-04-16T07:55:49.121Z,42.47
2018-04-16T07:58:16.534Z,46.40
2018-04-16T08:00:43.937Z,40.93
2018-04-16T08:03:11.421Z,49.70
2018-04-16T08:05:38.877Z,47.93
2018-04-16T08:08:06.277Z,51.80
2018-04-16T08:10:33.803Z,40.20
2018-04-16T08:13:01.208Z,45.40
2018-04-16T08:15:28.609Z,48.67
2018-04-16T08:17:56.012Z,41.67
2018-04-16T08:20:23.518Z,42.33
2018-04-16T08:22:50.975Z,41.87
2018-04-16T08:25:18.428Z,44.57
2018-04-16T08:27:45.824Z,42.23
2018-04-16T08:30:13.232Z,42.87
2018-04-16T08:32:40.625Z,40.67
2018-04-16T08:35:08.020Z,41.23
2018-04-16T08:37:35.413Z,40.37
2018-04-16T08:40:02.871Z,42.53
2018-04-16T08:42:30.325Z,42.33
2018-04-16T08:44:57.781Z,36.70
2018-04-16T08:47:25.182Z,39.90
2018-04-16T08:49:52.601Z,39.27
2018-04-16T08:52:20.077Z,39.73
2018-04-16T08:54:47.489Z,45.77
2018-04-16T08:57:14.889Z,41.80
2018-04-16T08:59:42.292Z,35.80
2018-04-16T09:02:09.681Z,43.30
2018-04-16T09:04:37.089Z,38.93
2018-04-16T09:07:04.485Z,39.43
2018-04-16T09:09:31.965Z,41.20
2018-04-16T09:11:59.404Z,46.60
2018-04-16T09:14:26.804Z,41.30
2018-04-16T09:16:54.209Z,42.27
2018-04-16T09:19:21.702Z,46.67
2018-04-16T09:21:49.141Z,45.40
2018-04-16T09:24:16.597Z,44.63
2018-04-16T09:26:44.002Z,42.57
2018-04-16T09:29:11.433Z,43.17
2018-04-16T09:31:38.879Z,38.77
2018-04-16T09:34:06.273Z,38.17
2018-04-16T09:36:33.780Z,40.10
2018-04-16T09:39:01.176Z,42.50
2018-04-16T09:41:28.608Z,42.03
2018-04-16T09:43:55.989Z,40.17
2018-04-16T09:46:23.389Z,44.03
2018-04-16T09:48:50.891Z,38.17
2018-04-16T09:51:18.347Z,36.37
2018-04-16T09:53:45.738Z,38.63
2018-04-16T09:56:13.147Z,42.97
2018-04-16T09:58:40.602Z,35.30
2018-04-16T10:01:13.769Z,48.77
2018-04-16T10:03:41.161Z,41.37
2018-04-16T10:06:08.563Z,41.83
2018-04-16T10:08:35.964Z,39.17
2018-04-16T10:11:03.427Z,41.13
2018-04-16T10:13:30.837Z,42.83
2018-04-16T10:15:58.334Z,42.77
2018-04-16T10:18:25.792Z,41.10
2018-04-16T10:20:53.184Z,38.33
2018-04-16T10:23:20.587Z,40.27
2018-04-16T10:25:47.994Z,37.87
2018-04-16T10:28:15.622Z,37.67
2018-04-16T10:30:43.992Z,36.67
2018-04-16T10:33:11.389Z,35.50
2018-04-16T10:35:38.796Z,35.13
2018-04-16T10:38:06.267Z,39.37
2018-04-16T10:40:33.726Z,38.87
2018-04-16T10:43:01.130Z,40.00
2018-04-16T10:45:28.538Z,34.63
2018-04-16T10:47:55.933Z,38.17
2018-04-16T10:50:23.334Z,32.83
2018-04-16T10:52:50.725Z,34.17
2018-04-16T10:55:18.128Z,29.70
2018-04-16T10:57:45.524Z,26.63
2018-04-16T11:00:12.972Z,27.10
2018-04-16T11:02:40.375Z,21.57
2018-04-16T11:05:08.766Z,22.30
2018-04-16T11:07:36.165Z,20.93
2018-04-16T11:10:03.609Z,24.93
2018-04-16T11:12:31.014Z,18.00
2018-04-16T11:14:58.437Z,16.17
2018-04-16T11:17:25.909Z,17.50
2018-04-16T11:19:53.348Z,17.70
2018-04-16T11:22:20.757Z,14.77
2018-04-16T11:24:48.157Z,9.47
2018-04-16T11:27:15.618Z,12.50
2018-04-16T11:29:43.004Z,11.40
2018-04-16T11:32:10.429Z,9.10
2018-04-16T11:34:37.893Z,10.60
2018-04-16T11:37:05.328Z,9.80
2018-04-16T11:39:32.801Z,10.10
2018-04-16T11:42:01.199Z,10.93
2018-04-16T11:44:28.589Z,9.70
2018-04-16T11:46:55.990Z,8.87
2018-04-16T11:49:23.374Z,8.90
2018-04-16T11:51:50.773Z,7.90
2018-04-16T11:54:18.172Z,11.50
2018-04-16T11:56:45.619Z,7.50
2018-04-16T11:59:13.078Z,9.97
2018-04-16T12:01:40.489Z,10.50
2018-04-16T12:04:07.881Z,9.77
2018-04-16T12:06:35.283Z,8.17
2018-04-16T12:09:02.669Z,7.20
2018-04-16T12:11:30.252Z,6.03
2018-04-16T12:13:57.650Z,9.83
2018-04-16T12:16:25.047Z,8.37
2018-04-16T12:18:52.500Z,11.17
2018-04-16T12:21:20.014Z,10.87
2018-04-16T12:23:47.489Z,11.97
2018-04-16T12:26:14.887Z,9.27
2018-04-16T12:28:42.273Z,7.50
2018-04-16T12:31:09.670Z,10.43
2018-04-16T12:33:37.072Z,13.73
2018-04-16T12:36:04.485Z,14.30
2018-04-16T12:38:31.890Z,13.47
2018-04-16T12:40:59.293Z,13.20
2018-04-16T12:43:27.674Z,13.07
2018-04-16T12:45:55.078Z,14.20
2018-04-16T12:48:22.535Z,13.37
2018-04-16T12:50:49.943Z,11.90
2018-04-16T12:53:17.337Z,12.90
2018-04-16T12:55:44.806Z,14.83
2018-04-16T12:58:13.185Z,14.73
2018-04-16T13:00:40.646Z,14.93
2018-04-16T13:03:08.049Z,14.80
2018-04-16T13:05:35.457Z,17.20
2018-04-16T13:08:02.862Z,17.37
2018-04-16T13:10:30.262Z,15.93
2018-04-16T13:12:57.661Z,15.30
2018-04-16T13:15:25.073Z,15.40
2018-04-16T13:17:52.473Z,15.20
2018-04-16T13:20:19.900Z,19.53
2018-04-16T13:22:47.296Z,13.20
2018-04-16T13:25:14.800Z,17.43
2018-04-16T13:27:42.492Z,19.83
2018-04-16T13:30:10.813Z,15.40
2018-04-16T13:32:38.210Z,15.50
2018-04-16T13:35:05.606Z,17.43
2018-04-16T13:37:33.117Z,13.57
2018-04-16T13:40:00.518Z,16.50
2018-04-16T13:42:27.918Z,15.13
2018-04-16T13:44:55.385Z,15.80
2018-04-16T13:47:22.837Z,16.63
2018-04-16T13:49:51.225Z,18.90
2018-04-16T13:52:18.634Z,14.70
2018-04-16T13:54:46.024Z,14.20
2018-04-16T13:57:13.511Z,18.03
2018-04-16T13:59:40.896Z,12.40
2018-04-16T14:02:08.298Z,14.77
2018-04-16T14:04:35.693Z,13.60
2018-04-16T14:07:03.126Z,11.87
2018-04-16T14:09:30.581Z,13.07
2018-04-16T14:11:58.103Z,27.13
2018-04-16T14:14:25.429Z,15.60
2018-04-16T14:16:52.833Z,13.27
2018-04-16T14:19:20.305Z,21.33
2018-04-16T14:21:47.761Z,15.57
2018-04-16T14:24:15.156Z,13.70
2018-04-16T14:26:42.558Z,14.07
2018-04-16T14:29:09.949Z,13.47
2018-04-16T14:31:37.400Z,16.13
2018-04-16T14:34:04.801Z,14.63
2018-04-16T14:36:32.212Z,12.90
2018-04-16T14:38:59.609Z,11.80
2018-04-16T14:41:27.108Z,12.30
2018-04-16T14:43:54.505Z,17.10
2018-04-16T14:46:21.904Z,15.87
2018-04-16T14:48:49.294Z,13.23
2018-04-16T14:51:16.737Z,14.47
2018-04-16T14:53:44.199Z,13.73
2018-04-16T14:56:11.601Z,16.90
2018-04-16T14:58:39.004Z,14.70
2018-04-16T15:01:06.469Z,13.50
2018-04-16T15:03:33.916Z,15.00
2018-04-16T15:06:01.278Z,13.40
2018-04-16T15:08:28.737Z,13.90
2018-04-16T15:10:56.194Z,10.20
2018-04-16T15:13:23.584Z,9.17
2018-04-16T15:15:50.969Z,10.53
2018-04-16T15:18:18.374Z,10.87
2018-04-16T15:20:45.837Z,11.37
2018-04-16T15:23:14.201Z,11.77
2018-04-16T15:25:41.784Z,11.33
2018-04-16T15:28:09.186Z,13.10
2018-04-16T15:30:36.586Z,16.87
2018-04-16T15:33:04.024Z,15.00
2018-04-16T15:35:31.490Z,15.87
2018-04-16T15:37:58.890Z,23.13
2018-04-16T15:40:26.281Z,18.17
2018-04-16T15:42:53.756Z,17.50
2018-04-16T15:45:21.154Z,21.03
2018-04-16T15:47:48.549Z,22.00
2018-04-16T15:50:15.961Z,19.20
2018-04-16T15:52:43.377Z,24.43
2018-04-16T15:55:10.785Z,20.80
2018-04-16T15:57:38.421Z,20.63
2018-04-16T16:00:06.834Z,18.60
2018-04-16T16:02:34.432Z,18.23
2018-04-16T16:05:01.835Z,19.63
2018-04-16T16:07:29.262Z,19.10
2018-04-16T16:09:56.660Z,21.13
2018-04-16T16:12:24.153Z,20.83
2018-04-16T16:14:51.639Z,19.47
2018-04-16T16:17:19.045Z,19.10
2018-04-16T16:19:46.446Z,19.60
2018-04-16T16:22:13.863Z,18.57
2018-04-16T16:24:41.268Z,19.30
2018-04-16T16:27:08.671Z,19.87
2018-04-16T16:29:36.169Z,20.07
2018-04-16T16:32:03.574Z,20.03
2018-04-16T16:34:30.985Z,22.13
2018-04-16T16:36:58.388Z,20.40
2018-04-16T16:39:25.777Z,22.43
2018-04-16T16:41:53.192Z,25.43
2018-04-16T16:44:20.590Z,23.80
2018-04-16T16:46:48.065Z,23.50
2018-04-16T16:49:15.465Z,25.30
2018-04-16T16:51:42.861Z,26.93
2018-04-16T16:54:10.416Z,23.17
2018-04-16T16:56:37.802Z,21.57
2018-04-16T16:59:05.276Z,25.90
2018-04-16T17:01:32.682Z,24.63
2018-04-16T17:04:00.086Z,27.63
2018-04-16T17:06:27.490Z,25.90
2018-04-16T17:08:54.887Z,27.30
2018-04-16T17:11:22.285Z,25.33
2018-04-16T17:13:49.819Z,26.77
2018-04-16T17:16:17.200Z,27.60
2018-04-16T17:18:44.600Z,23.20
2018-04-16T17:21:12.002Z,24.73
2018-04-16T17:23:39.411Z,31.20
2018-04-16T17:26:06.893Z,29.57
2018-04-16T17:28:34.297Z,26.60
2018-04-16T17:31:01.800Z,28.07
2018-04-16T17:33:29.220Z,27.83
2018-04-16T17:35:56.713Z,27.07
2018-04-16T17:38:24.171Z,29.67
2018-04-16T17:40:51.571Z,28.57
2018-04-16T17:43:18.968Z,26.30
2018-04-16T17:45:46.361Z,30.47
2018-04-16T17:48:13.835Z,25.73
2018-04-16T17:50:41.206Z,30.60
2018-04-16T17:53:08.606Z,30.00
2018-04-16T17:55:36.061Z,33.17
2018-04-16T17:58:03.478Z,26.70
2018-04-16T18:00:30.903Z,27.90
2018-04-16T18:02:58.319Z,29.30
2018-04-16T18:05:25.785Z,25.30
2018-04-16T18:07:53.213Z,28.90
2018-04-16T18:10:20.593Z,28.20
2018-04-16T18:12:47.997Z,31.43
2018-04-16T18:15:15.406Z,28.83
2018-04-16T18:17:42.841Z,29.23
2018-04-16T18:20:10.253Z,26.07
2018-04-16T18:22:37.657Z,31.10
2018-04-16T18:25:05.053Z,27.80
2018-04-16T18:27:32.473Z,31.20
2018-04-16T18:29:59.948Z,29.60
2018-04-16T18:32:27.366Z,39.67
2018-04-16T18:34:54.749Z,38.53
2018-04-16T18:37:22.147Z,29.47
2018-04-16T18:39:49.573Z,26.30
2018-04-16T18:42:16.985Z,27.87
2018-04-16T18:44:44.408Z,28.10
2018-04-16T18:47:11.795Z,36.13
2018-04-16T18:49:39.198Z,30.37
2018-04-16T18:52:06.662Z,33.23
2018-04-16T18:54:34.077Z,35.30
2018-04-16T18:57:01.465Z,34.60
2018-04-16T18:59:28.870Z,32.30
2018-04-16T19:01:56.276Z,40.23
2018-04-16T19:04:23.750Z,30.33
2018-04-16T19:06:51.157Z,31.13
2018-04-16T19:09:18.553Z,22.77
2018-04-16T19:11:46.021Z,27.60
2018-04-16T19:14:13.422Z,25.10
2018-04-16T19:16:40.821Z,27.60
2018-04-16T19:19:08.265Z,28.67
2018-04-16T19:21:41.358Z,20.93
2018-04-16T19:24:08.787Z,26.97
2018-04-16T19:26:36.179Z,19.23
2018-04-16T19:29:03.628Z,23.13
2018-04-16T19:31:31.080Z,26.07
2018-04-16T19:34:04.087Z,23.80
2018-04-16T19:36:31.550Z,30.83
2018-04-16T19:38:58.949Z,19.70
2018-04-16T19:41:26.457Z,20.93
2018-04-16T19:43:53.842Z,21.30
2018-04-16T19:46:21.257Z,20.77
2018-04-16T19:48:54.349Z,22.73
2018-04-16T19:51:21.671Z,17.80
2018-04-16T19:53:49.158Z,19.63
2018-04-16T19:59:22.673Z,14.00
2018-04-16T20:01:55.773Z,18.10
2018-04-16T20:04:23.171Z,23.33
2018-04-16T20:06:50.557Z,14.63
2018-04-16T20:09:17.963Z,18.37
2018-04-16T20:11:45.384Z,15.93
2018-04-16T20:14:12.785Z,14.03
2018-04-16T20:16:40.198Z,15.00
2018-04-16T20:19:07.628Z,12.27
2018-04-16T20:21:35.033Z,17.90
2018-04-16T20:24:02.425Z,27.87
2018-04-16T20:26:29.871Z,9.43
2018-04-16T20:28:57.260Z,17.17
2018-04-16T20:31:24.662Z,11.43
2018-04-16T20:33:52.107Z,15.40
2018-04-16T20:36:19.551Z,12.93
2018-04-16T20:38:47.017Z,27.53
2018-04-16T20:41:14.459Z,14.97
2018-04-16T20:43:41.861Z,11.93
2018-04-16T20:46:09.269Z,22.17
2018-04-16T20:48:36.666Z,19.17
2018-04-16T20:51:04.094Z,12.87
2018-04-16T20:53:31.550Z,16.30
2018-04-16T20:55:58.944Z,14.87
2018-04-16T20:58:26.349Z,19.47
2018-04-16T21:00:53.754Z,24.30
2018-04-16T21:03:21.137Z,14.07
2018-04-16T21:05:48.542Z,21.23
2018-04-16T21:08:16.030Z,20.37
2018-04-16T21:10:43.425Z,18.33
2018-04-16T21:13:10.847Z,20.37
2018-04-16T21:15:38.253Z,22.57
2018-04-16T21:18:05.751Z,21.83
2018-04-16T21:20:33.153Z,19.40
2018-04-16T21:23:00.561Z,21.13
2018-04-16T21:25:27.962Z,19.33
2018-04-16T21:27:55.400Z,17.83
2018-04-16T21:30:22.811Z,21.48
2018-04-16T21:32:50.221Z,18.20
2018-04-16T21:35:17.693Z,21.50
2018-04-16T21:37:45.093Z,19.73
2018-04-16T21:40:12.490Z,20.47
2018-04-16T21:42:39.897Z,15.13
2018-04-16T21:45:07.362Z,24.80
2018-04-16T21:47:34.767Z,20.00
2018-04-16T21:50:02.282Z,23.00
2018-04-16T21:52:29.674Z,20.17
2018-04-16T21:54:57.068Z,18.30
2018-04-16T21:57:24.540Z,29.00
2018-04-16T21:59:51.946Z,19.37
2018-04-16T22:02:19.342Z,20.13
2018-04-16T22:04:46.750Z,21.57
2018-04-16T22:07:14.137Z,19.90
2018-04-16T22:09:41.590Z,28.73
2018-04-16T22:12:09.105Z,19.90
2018-04-16T22:14:36.498Z,24.60
2018-04-16T22:17:03.902Z,15.30
2018-04-16T22:19:31.361Z,24.33
2018-04-16T22:21:58.746Z,16.57
2018-04-16T22:24:26.159Z,15.20
2018-04-16T22:26:53.623Z,18.63
2018-04-16T22:29:21.013Z,25.97
2018-04-16T22:31:48.405Z,20.97
2018-04-16T22:34:15.797Z,18.20
2018-04-16T22:36:43.194Z,19.00
2018-04-16T22:39:10.581Z,15.83
2018-04-16T22:41:37.997Z,20.60
2018-04-16T22:44:05.414Z,11.33
2018-04-16T22:46:32.820Z,15.80
2018-04-16T22:49:00.225Z,14.50
2018-04-16T22:51:27.657Z,14.00
2018-04-16T22:53:55.065Z,14.30
2018-04-16T22:56:22.466Z,16.60
2018-04-16T22:58:49.857Z,7.57
2018-04-16T23:01:17.271Z,18.00
2018-04-16T23:03:44.655Z,17.77
2018-04-16T23:06:12.101Z,15.00
2018-04-16T23:08:39.493Z,12.43
2018-04-16T23:11:06.911Z,11.30
2018-04-16T23:13:34.373Z,13.63
2018-04-16T23:16:01.771Z,12.20
2018-04-16T23:18:29.166Z,12.80
2018-04-16T23:20:56.564Z,19.70
2018-04-16T23:23:23.995Z,15.70
2018-04-16T23:25:51.385Z,18.97
2018-04-16T23:28:18.804Z,14.10
2018-04-16T23:30:46.267Z,13.93
2018-04-16T23:33:13.723Z,12.03
2018-04-16T23:35:41.164Z,17.17
2018-04-16T23:38:08.640Z,10.80
2018-04-16T23:40:36.041Z,15.20
2018-04-16T23:43:03.436Z,16.23
2018-04-16T23:45:31.184Z,16.13
2018-04-16T23:47:58.577Z,15.03
2018-04-16T23:50:25.977Z,13.20
2018-04-16T23:52:53.369Z,20.23
2018-04-16T23:55:20.793Z,12.10
2018-04-16T23:57:48.190Z,24.67
